sensor_id;sensor_type;location;lat;lon;timestamp;P1;durP1;ratioP1;P2;durP2;ratioP2
30617;SDS011;17384;51.214;9.202;2022-09-09T00:06:42;4.63;;;2.60;;
30617;SDS011;17384;51.214;9.202;2022-09-09T00:09:16;7.50;;;2.80;;
30617;SDS011;17384;51.214;9.202;2022-09-09T00:11:51;7.45;;;2.78;;
30617;SDS011;17384;51.214;9.202;2022-09-09T00:16:47;3.95;;;2.35;;
30617;SDS011;17384;51.214;9.202;2022-09-09T00:19:18;4.97;;;2.40;;
30617;SDS011;17384;51.214;9.202;2022-09-09T00:22:05;3.72;;;2.40;;
30617;SDS011;17384;51.214;9.202;2022-09-09T00:24:42;9.10;;;1.70;;
30617;SDS011;17384;51.214;9.202;2022-09-09T00:32:18;6.70;;;2.45;;
30617;SDS011;17384;51.214;9.202;2022-09-09T00:34:48;3.35;;;2.15;;
30617;SDS011;17384;51.214;9.202;2022-09-09T00:37:14;5.22;;;2.28;;
30617;SDS011;17384;51.214;9.202;2022-09-09T00:39:46;5.13;;;2.72;;
30617;SDS011;17384;51.214;9.202;2022-09-09T00:42:46;3.00;;;2.55;;
30617;SDS011;17384;51.214;9.202;2022-09-09T00:45:16;6.18;;;2.38;;
30617;SDS011;17384;51.214;9.202;2022-09-09T00:47:45;3.75;;;2.45;;
30617;SDS011;17384;51.214;9.202;2022-09-09T00:52:39;3.75;;;2.28;;
30617;SDS011;17384;51.214;9.202;2022-09-09T00:55:12;1.95;;;1.85;;
30617;SDS011;17384;51.214;9.202;2022-09-09T00:57:40;3.40;;;2.20;;
30617;SDS011;17384;51.214;9.202;2022-09-09T01:05:27;2.80;;;2.47;;
30617;SDS011;17384;51.214;9.202;2022-09-09T01:07:55;2.95;;;2.22;;
30617;SDS011;17384;51.214;9.202;2022-09-09T01:13:01;2.88;;;1.92;;
30617;SDS011;17384;51.214;9.202;2022-09-09T01:15:29;8.77;;;2.80;;
30617;SDS011;17384;51.214;9.202;2022-09-09T01:18:03;6.75;;;2.88;;
30617;SDS011;17384;51.214;9.202;2022-09-09T01:20:40;10.93;;;2.88;;
30617;SDS011;17384;51.214;9.202;2022-09-09T01:28:39;4.63;;;3.28;;
30617;SDS011;17384;51.214;9.202;2022-09-09T01:31:05;6.10;;;3.10;;
30617;SDS011;17384;51.214;9.202;2022-09-09T01:33:32;6.65;;;3.63;;
30617;SDS011;17384;51.214;9.202;2022-09-09T01:35:59;8.00;;;3.20;;
30617;SDS011;17384;51.214;9.202;2022-09-09T01:38:25;3.38;;;3.08;;
30617;SDS011;17384;51.214;9.202;2022-09-09T01:40:51;5.63;;;3.30;;
30617;SDS011;17384;51.214;9.202;2022-09-09T01:43:18;6.35;;;3.17;;
30617;SDS011;17384;51.214;9.202;2022-09-09T01:45:43;6.88;;;2.78;;
30617;SDS011;17384;51.214;9.202;2022-09-09T01:48:09;3.72;;;3.10;;
30617;SDS011;17384;51.214;9.202;2022-09-09T01:50:34;5.53;;;2.92;;
30617;SDS011;17384;51.214;9.202;2022-09-09T01:53:00;7.75;;;3.22;;
30617;SDS011;17384;51.214;9.202;2022-09-09T01:55:30;14.43;;;3.65;;
30617;SDS011;17384;51.214;9.202;2022-09-09T02:00:34;4.65;;;2.70;;
30617;SDS011;17384;51.214;9.202;2022-09-09T02:06:10;7.57;;;2.88;;
30617;SDS011;17384;51.214;9.202;2022-09-09T02:08:41;6.38;;;2.65;;
30617;SDS011;17384;51.214;9.202;2022-09-09T02:11:12;4.97;;;3.00;;
30617;SDS011;17384;51.214;9.202;2022-09-09T02:13:38;6.57;;;3.25;;
30617;SDS011;17384;51.214;9.202;2022-09-09T02:18:40;7.82;;;4.25;;
30617;SDS011;17384;51.214;9.202;2022-09-09T02:21:08;10.02;;;5.50;;
30617;SDS011;17384;51.214;9.202;2022-09-09T02:23:36;15.43;;;5.20;;
30617;SDS011;17384;51.214;9.202;2022-09-09T02:26:04;7.47;;;4.43;;
30617;SDS011;17384;51.214;9.202;2022-09-09T02:28:31;8.10;;;4.43;;
30617;SDS011;17384;51.214;9.202;2022-09-09T02:30:57;7.97;;;4.97;;
30617;SDS011;17384;51.214;9.202;2022-09-09T02:33:24;11.55;;;4.90;;
30617;SDS011;17384;51.214;9.202;2022-09-09T02:35:50;7.38;;;4.65;;
30617;SDS011;17384;51.214;9.202;2022-09-09T02:38:16;10.15;;;5.15;;
30617;SDS011;17384;51.214;9.202;2022-09-09T02:40:42;8.93;;;4.18;;
30617;SDS011;17384;51.214;9.202;2022-09-09T02:43:07;8.60;;;4.22;;
30617;SDS011;17384;51.214;9.202;2022-09-09T02:48:38;10.93;;;4.68;;
30617;SDS011;17384;51.214;9.202;2022-09-09T02:56:20;12.43;;;6.15;;
30617;SDS011;17384;51.214;9.202;2022-09-09T02:58:46;10.48;;;5.53;;
30617;SDS011;17384;51.214;9.202;2022-09-09T03:01:12;10.90;;;5.70;;
30617;SDS011;17384;51.214;9.202;2022-09-09T03:03:37;14.93;;;5.82;;
30617;SDS011;17384;51.214;9.202;2022-09-09T03:06:03;12.68;;;5.40;;
30617;SDS011;17384;51.214;9.202;2022-09-09T03:08:28;11.10;;;5.88;;
30617;SDS011;17384;51.214;9.202;2022-09-09T03:10:54;17.98;;;6.28;;
30617;SDS011;17384;51.214;9.202;2022-09-09T03:13:19;14.20;;;5.60;;
30617;SDS011;17384;51.214;9.202;2022-09-09T03:15:44;12.23;;;5.22;;
30617;SDS011;17384;51.214;9.202;2022-09-09T03:18:10;15.48;;;5.22;;
30617;SDS011;17384;51.214;9.202;2022-09-09T03:20:35;9.90;;;4.63;;
30617;SDS011;17384;51.214;9.202;2022-09-09T03:23:00;12.68;;;5.47;;
30617;SDS011;17384;51.214;9.202;2022-09-09T03:25:27;10.77;;;5.07;;
30617;SDS011;17384;51.214;9.202;2022-09-09T03:27:54;21.00;;;4.80;;
30617;SDS011;17384;51.214;9.202;2022-09-09T03:30:20;10.60;;;4.57;;
30617;SDS011;17384;51.214;9.202;2022-09-09T03:32:46;8.38;;;4.78;;
30617;SDS011;17384;51.214;9.202;2022-09-09T03:35:11;15.30;;;5.40;;
30617;SDS011;17384;51.214;9.202;2022-09-09T03:37:36;11.95;;;5.13;;
30617;SDS011;17384;51.214;9.202;2022-09-09T03:40:04;16.85;;;4.10;;
30617;SDS011;17384;51.214;9.202;2022-09-09T03:42:29;13.52;;;5.28;;
30617;SDS011;17384;51.214;9.202;2022-09-09T03:44:55;12.90;;;4.20;;
30617;SDS011;17384;51.214;9.202;2022-09-09T03:47:22;13.60;;;5.25;;
30617;SDS011;17384;51.214;9.202;2022-09-09T03:49:48;11.75;;;4.20;;
30617;SDS011;17384;51.214;9.202;2022-09-09T03:52:13;8.68;;;4.10;;
30617;SDS011;17384;51.214;9.202;2022-09-09T03:54:39;10.82;;;4.25;;
30617;SDS011;17384;51.214;9.202;2022-09-09T03:57:06;15.45;;;4.15;;
30617;SDS011;17384;51.214;9.202;2022-09-09T03:59:31;8.93;;;3.80;;
30617;SDS011;17384;51.214;9.202;2022-09-09T04:01:56;8.07;;;3.77;;
30617;SDS011;17384;51.214;9.202;2022-09-09T04:04:24;10.75;;;3.40;;
30617;SDS011;17384;51.214;9.202;2022-09-09T04:06:49;6.68;;;3.65;;
30617;SDS011;17384;51.214;9.202;2022-09-09T04:09:15;13.45;;;4.40;;
30617;SDS011;17384;51.214;9.202;2022-09-09T04:11:41;12.68;;;3.83;;
30617;SDS011;17384;51.214;9.202;2022-09-09T04:14:06;8.63;;;4.03;;
30617;SDS011;17384;51.214;9.202;2022-09-09T04:16:32;12.15;;;3.75;;
30617;SDS011;17384;51.214;9.202;2022-09-09T04:18:57;7.82;;;4.25;;
30617;SDS011;17384;51.214;9.202;2022-09-09T04:21:23;7.03;;;3.92;;
30617;SDS011;17384;51.214;9.202;2022-09-09T04:23:48;9.43;;;4.00;;
30617;SDS011;17384;51.214;9.202;2022-09-09T04:26:13;14.27;;;4.30;;
30617;SDS011;17384;51.214;9.202;2022-09-09T04:28:39;7.73;;;3.87;;
30617;SDS011;17384;51.214;9.202;2022-09-09T04:31:05;9.35;;;3.60;;
30617;SDS011;17384;51.214;9.202;2022-09-09T04:33:30;13.15;;;4.13;;
30617;SDS011;17384;51.214;9.202;2022-09-09T04:35:56;8.32;;;3.80;;
30617;SDS011;17384;51.214;9.202;2022-09-09T04:38:22;7.20;;;3.67;;
30617;SDS011;17384;51.214;9.202;2022-09-09T04:40:48;7.45;;;4.15;;
30617;SDS011;17384;51.214;9.202;2022-09-09T04:43:14;7.75;;;4.05;;
30617;SDS011;17384;51.214;9.202;2022-09-09T04:45:40;12.43;;;4.60;;
30617;SDS011;17384;51.214;9.202;2022-09-09T04:48:05;6.88;;;3.92;;
30617;SDS011;17384;51.214;9.202;2022-09-09T04:50:30;9.40;;;3.95;;
30617;SDS011;17384;51.214;9.202;2022-09-09T04:52:59;5.63;;;3.72;;
30617;SDS011;17384;51.214;9.202;2022-09-09T04:55:24;8.05;;;4.10;;
30617;SDS011;17384;51.214;9.202;2022-09-09T04:57:49;8.43;;;4.10;;
30617;SDS011;17384;51.214;9.202;2022-09-09T05:00:16;7.17;;;3.63;;
30617;SDS011;17384;51.214;9.202;2022-09-09T05:02:42;6.40;;;4.18;;
30617;SDS011;17384;51.214;9.202;2022-09-09T05:05:07;6.93;;;4.15;;
30617;SDS011;17384;51.214;9.202;2022-09-09T05:07:33;10.35;;;3.85;;
30617;SDS011;17384;51.214;9.202;2022-09-09T05:09:58;8.90;;;3.83;;
30617;SDS011;17384;51.214;9.202;2022-09-09T05:12:24;14.00;;;4.37;;
30617;SDS011;17384;51.214;9.202;2022-09-09T05:14:51;6.57;;;3.50;;
30617;SDS011;17384;51.214;9.202;2022-09-09T05:17:16;6.30;;;4.18;;
30617;SDS011;17384;51.214;9.202;2022-09-09T05:19:41;15.03;;;3.93;;
30617;SDS011;17384;51.214;9.202;2022-09-09T05:22:06;10.40;;;4.03;;
30617;SDS011;17384;51.214;9.202;2022-09-09T05:24:32;8.52;;;3.50;;
30617;SDS011;17384;51.214;9.202;2022-09-09T05:26:58;7.28;;;4.00;;
30617;SDS011;17384;51.214;9.202;2022-09-09T05:29:26;6.60;;;3.17;;
30617;SDS011;17384;51.214;9.202;2022-09-09T05:31:52;6.10;;;4.03;;
30617;SDS011;17384;51.214;9.202;2022-09-09T05:34:17;6.38;;;4.03;;
30617;SDS011;17384;51.214;9.202;2022-09-09T05:36:42;7.30;;;3.63;;
30617;SDS011;17384;51.214;9.202;2022-09-09T05:39:08;9.85;;;3.70;;
30617;SDS011;17384;51.214;9.202;2022-09-09T05:41:33;5.72;;;3.80;;
30617;SDS011;17384;51.214;9.202;2022-09-09T05:43:59;14.32;;;4.40;;
30617;SDS011;17384;51.214;9.202;2022-09-09T05:46:26;9.90;;;3.90;;
30617;SDS011;17384;51.214;9.202;2022-09-09T05:48:51;9.95;;;4.22;;
30617;SDS011;17384;51.214;9.202;2022-09-09T05:51:18;6.50;;;3.92;;
30617;SDS011;17384;51.214;9.202;2022-09-09T05:53:44;9.13;;;3.95;;
30617;SDS011;17384;51.214;9.202;2022-09-09T05:56:11;6.80;;;3.83;;
30617;SDS011;17384;51.214;9.202;2022-09-09T05:58:37;5.43;;;4.00;;
30617;SDS011;17384;51.214;9.202;2022-09-09T06:01:04;12.15;;;4.45;;
30617;SDS011;17384;51.214;9.202;2022-09-09T06:03:29;11.88;;;4.18;;
30617;SDS011;17384;51.214;9.202;2022-09-09T06:06:02;5.88;;;3.67;;
30617;SDS011;17384;51.214;9.202;2022-09-09T06:08:30;10.98;;;3.97;;
30617;SDS011;17384;51.214;9.202;2022-09-09T06:11:00;6.13;;;4.10;;
30617;SDS011;17384;51.214;9.202;2022-09-09T06:13:27;11.18;;;4.20;;
30617;SDS011;17384;51.214;9.202;2022-09-09T06:15:52;10.77;;;3.63;;
30617;SDS011;17384;51.214;9.202;2022-09-09T06:18:18;11.90;;;4.45;;
30617;SDS011;17384;51.214;9.202;2022-09-09T06:21:00;10.32;;;4.10;;
30617;SDS011;17384;51.214;9.202;2022-09-09T06:23:29;10.35;;;4.03;;
30617;SDS011;17384;51.214;9.202;2022-09-09T06:26:04;8.38;;;3.35;;
30617;SDS011;17384;51.214;9.202;2022-09-09T06:28:31;10.75;;;3.90;;
30617;SDS011;17384;51.214;9.202;2022-09-09T06:30:57;11.00;;;4.15;;
30617;SDS011;17384;51.214;9.202;2022-09-09T06:33:23;13.63;;;4.30;;
30617;SDS011;17384;51.214;9.202;2022-09-09T06:35:52;11.70;;;4.95;;
30617;SDS011;17384;51.214;9.202;2022-09-09T06:38:18;10.57;;;5.25;;
30617;SDS011;17384;51.214;9.202;2022-09-09T06:40:50;15.00;;;5.03;;
30617;SDS011;17384;51.214;9.202;2022-09-09T06:43:16;10.30;;;4.63;;
30617;SDS011;17384;51.214;9.202;2022-09-09T06:45:42;23.80;;;4.75;;
30617;SDS011;17384;51.214;9.202;2022-09-09T06:48:07;12.25;;;5.53;;
30617;SDS011;17384;51.214;9.202;2022-09-09T06:50:33;15.05;;;4.55;;
30617;SDS011;17384;51.214;9.202;2022-09-09T06:52:59;12.88;;;5.18;;
30617;SDS011;17384;51.214;9.202;2022-09-09T06:55:25;13.98;;;5.10;;
30617;SDS011;17384;51.214;9.202;2022-09-09T06:57:50;12.88;;;4.68;;
30617;SDS011;17384;51.214;9.202;2022-09-09T07:00:16;10.27;;;4.82;;
30617;SDS011;17384;51.214;9.202;2022-09-09T07:02:41;12.73;;;4.25;;
30617;SDS011;17384;51.214;9.202;2022-09-09T07:05:07;12.55;;;4.60;;
30617;SDS011;17384;51.214;9.202;2022-09-09T07:07:33;12.80;;;5.95;;
30617;SDS011;17384;51.214;9.202;2022-09-09T07:09:58;14.65;;;4.70;;
30617;SDS011;17384;51.214;9.202;2022-09-09T07:12:24;14.05;;;4.35;;
30617;SDS011;17384;51.214;9.202;2022-09-09T07:14:49;13.40;;;3.92;;
30617;SDS011;17384;51.214;9.202;2022-09-09T07:17:14;16.52;;;5.28;;
30617;SDS011;17384;51.214;9.202;2022-09-09T07:19:40;9.57;;;3.65;;
30617;SDS011;17384;51.214;9.202;2022-09-09T07:22:05;12.40;;;4.22;;
30617;SDS011;17384;51.214;9.202;2022-09-09T07:24:31;8.80;;;4.35;;
30617;SDS011;17384;51.214;9.202;2022-09-09T07:26:56;11.93;;;4.28;;
30617;SDS011;17384;51.214;9.202;2022-09-09T07:29:22;10.52;;;3.75;;
30617;SDS011;17384;51.214;9.202;2022-09-09T07:31:47;13.27;;;3.85;;
30617;SDS011;17384;51.214;9.202;2022-09-09T07:34:13;6.85;;;3.60;;
30617;SDS011;17384;51.214;9.202;2022-09-09T07:36:39;10.65;;;4.13;;
30617;SDS011;17384;51.214;9.202;2022-09-09T07:39:06;12.88;;;4.22;;
30617;SDS011;17384;51.214;9.202;2022-09-09T07:41:32;10.20;;;3.65;;
30617;SDS011;17384;51.214;9.202;2022-09-09T07:43:59;11.70;;;4.32;;
30617;SDS011;17384;51.214;9.202;2022-09-09T07:46:25;10.45;;;4.03;;
30617;SDS011;17384;51.214;9.202;2022-09-09T07:48:52;12.15;;;4.88;;
30617;SDS011;17384;51.214;9.202;2022-09-09T07:51:19;7.50;;;3.78;;
30617;SDS011;17384;51.214;9.202;2022-09-09T07:53:48;15.45;;;4.57;;
30617;SDS011;17384;51.214;9.202;2022-09-09T07:56:16;10.23;;;4.50;;
30617;SDS011;17384;51.214;9.202;2022-09-09T07:58:42;10.73;;;4.35;;
30617;SDS011;17384;51.214;9.202;2022-09-09T08:01:09;11.02;;;4.20;;
30617;SDS011;17384;51.214;9.202;2022-09-09T08:03:34;12.48;;;4.30;;
30617;SDS011;17384;51.214;9.202;2022-09-09T08:06:03;7.63;;;3.97;;
30617;SDS011;17384;51.214;9.202;2022-09-09T08:08:29;10.73;;;4.80;;
30617;SDS011;17384;51.214;9.202;2022-09-09T08:11:00;13.20;;;4.22;;
30617;SDS011;17384;51.214;9.202;2022-09-09T08:13:26;5.75;;;4.13;;
30617;SDS011;17384;51.214;9.202;2022-09-09T08:15:52;7.10;;;3.72;;
30617;SDS011;17384;51.214;9.202;2022-09-09T08:18:17;14.73;;;4.30;;
30617;SDS011;17384;51.214;9.202;2022-09-09T08:20:42;9.53;;;3.53;;
30617;SDS011;17384;51.214;9.202;2022-09-09T08:23:08;12.95;;;3.75;;
30617;SDS011;17384;51.214;9.202;2022-09-09T08:25:33;7.60;;;3.67;;
30617;SDS011;17384;51.214;9.202;2022-09-09T08:27:59;9.02;;;3.65;;
30617;SDS011;17384;51.214;9.202;2022-09-09T08:30:25;13.50;;;4.00;;
30617;SDS011;17384;51.214;9.202;2022-09-09T08:32:51;9.90;;;3.20;;
30617;SDS011;17384;51.214;9.202;2022-09-09T08:35:17;12.40;;;3.80;;
30617;SDS011;17384;51.214;9.202;2022-09-09T08:37:42;15.27;;;3.38;;
30617;SDS011;17384;51.214;9.202;2022-09-09T08:40:22;7.22;;;2.67;;
30617;SDS011;17384;51.214;9.202;2022-09-09T08:42:51;14.10;;;3.22;;
30617;SDS011;17384;51.214;9.202;2022-09-09T08:45:26;11.98;;;2.75;;
30617;SDS011;17384;51.214;9.202;2022-09-09T08:50:35;8.75;;;2.60;;
30617;SDS011;17384;51.214;9.202;2022-09-09T08:58:13;13.20;;;2.40;;
30617;SDS011;17384;51.214;9.202;2022-09-09T09:08:31;4.85;;;1.42;;
30617;SDS011;17384;51.214;9.202;2022-09-09T09:11:00;9.82;;;2.05;;
30617;SDS011;17384;51.214;9.202;2022-09-09T09:13:30;7.30;;;1.88;;
30617;SDS011;17384;51.214;9.202;2022-09-09T09:16:03;8.52;;;1.92;;
30617;SDS011;17384;51.214;9.202;2022-09-09T09:18:31;7.75;;;1.80;;
30617;SDS011;17384;51.214;9.202;2022-09-09T09:21:11;7.82;;;1.88;;
30617;SDS011;17384;51.214;9.202;2022-09-09T09:23:40;13.30;;;2.53;;
30617;SDS011;17384;51.214;9.202;2022-09-09T09:26:09;9.05;;;1.70;;
30617;SDS011;17384;51.214;9.202;2022-09-09T09:28:36;7.20;;;1.77;;
30617;SDS011;17384;51.214;9.202;2022-09-09T09:31:06;5.95;;;1.67;;
30617;SDS011;17384;51.214;9.202;2022-09-09T09:33:34;5.90;;;1.75;;
30617;SDS011;17384;51.214;9.202;2022-09-09T09:36:01;6.78;;;1.65;;
30617;SDS011;17384;51.214;9.202;2022-09-09T09:38:28;4.25;;;1.23;;
30617;SDS011;17384;51.214;9.202;2022-09-09T09:40:55;4.05;;;1.70;;
30617;SDS011;17384;51.214;9.202;2022-09-09T09:43:28;7.22;;;1.45;;
30617;SDS011;17384;51.214;9.202;2022-09-09T09:45:54;3.45;;;1.35;;
30617;SDS011;17384;51.214;9.202;2022-09-09T09:48:20;8.25;;;1.20;;
30617;SDS011;17384;51.214;9.202;2022-09-09T09:50:52;6.20;;;1.40;;
30617;SDS011;17384;51.214;9.202;2022-09-09T09:55:48;12.25;;;1.88;;
30617;SDS011;17384;51.214;9.202;2022-09-09T09:58:15;7.63;;;1.50;;
30617;SDS011;17384;51.214;9.202;2022-09-09T10:00:49;6.60;;;1.67;;
30617;SDS011;17384;51.214;9.202;2022-09-09T10:03:33;4.82;;;1.60;;
30617;SDS011;17384;51.214;9.202;2022-09-09T10:06:02;6.82;;;1.48;;
30617;SDS011;17384;51.214;9.202;2022-09-09T10:08:28;8.65;;;1.13;;
30617;SDS011;17384;51.214;9.202;2022-09-09T10:13:53;5.57;;;1.23;;
30617;SDS011;17384;51.214;9.202;2022-09-09T10:19:29;7.97;;;1.27;;
30617;SDS011;17384;51.214;9.202;2022-09-09T10:32:56;4.00;;;1.10;;
30617;SDS011;17384;51.214;9.202;2022-09-09T10:35:33;7.22;;;1.15;;
30617;SDS011;17384;51.214;9.202;2022-09-09T10:48:17;6.82;;;1.50;;
30617;SDS011;17384;51.214;9.202;2022-09-09T10:56:19;5.93;;;1.25;;
30617;SDS011;17384;51.214;9.202;2022-09-09T10:58:56;8.85;;;1.67;;
30617;SDS011;17384;51.214;9.202;2022-09-09T11:01:28;4.55;;;1.42;;
30617;SDS011;17384;51.214;9.202;2022-09-09T11:03:56;3.60;;;1.20;;
30617;SDS011;17384;51.214;9.202;2022-09-09T11:06:23;5.50;;;1.45;;
30617;SDS011;17384;51.214;9.202;2022-09-09T11:08:54;7.75;;;1.50;;
30617;SDS011;17384;51.214;9.202;2022-09-09T11:11:32;5.60;;;1.42;;
30617;SDS011;17384;51.214;9.202;2022-09-09T11:14:02;9.98;;;1.65;;
30617;SDS011;17384;51.214;9.202;2022-09-09T11:16:46;8.35;;;1.55;;
30617;SDS011;17384;51.214;9.202;2022-09-09T11:19:21;5.18;;;1.30;;
30617;SDS011;17384;51.214;9.202;2022-09-09T11:21:50;4.40;;;1.05;;
30617;SDS011;17384;51.214;9.202;2022-09-09T11:26:47;9.35;;;1.38;;
30617;SDS011;17384;51.214;9.202;2022-09-09T11:32:00;7.07;;;1.38;;
30617;SDS011;17384;51.214;9.202;2022-09-09T11:37:05;5.65;;;1.20;;
30617;SDS011;17384;51.214;9.202;2022-09-09T11:42:21;1.98;;;0.70;;
30617;SDS011;17384;51.214;9.202;2022-09-09T11:44:47;6.80;;;1.33;;
30617;SDS011;17384;51.214;9.202;2022-09-09T11:47:21;2.85;;;0.88;;
30617;SDS011;17384;51.214;9.202;2022-09-09T11:49:49;4.22;;;1.15;;
30617;SDS011;17384;51.214;9.202;2022-09-09T11:52:22;7.65;;;1.58;;
30617;SDS011;17384;51.214;9.202;2022-09-09T11:54:48;8.43;;;1.70;;
30617;SDS011;17384;51.214;9.202;2022-09-09T11:57:32;9.73;;;1.75;;
30617;SDS011;17384;51.214;9.202;2022-09-09T11:59:58;7.68;;;1.85;;
30617;SDS011;17384;51.214;9.202;2022-09-09T12:02:24;4.80;;;1.83;;
30617;SDS011;17384;51.214;9.202;2022-09-09T12:07:37;6.72;;;1.48;;
30617;SDS011;17384;51.214;9.202;2022-09-09T12:10:05;7.93;;;1.52;;
30617;SDS011;17384;51.214;9.202;2022-09-09T12:12:43;5.05;;;1.58;;
30617;SDS011;17384;51.214;9.202;2022-09-09T12:17:44;4.60;;;1.37;;
30617;SDS011;17384;51.214;9.202;2022-09-09T12:27:50;2.58;;;1.30;;
30617;SDS011;17384;51.214;9.202;2022-09-09T12:30:21;4.43;;;1.40;;
30617;SDS011;17384;51.214;9.202;2022-09-09T12:33:06;13.40;;;1.45;;
30617;SDS011;17384;51.214;9.202;2022-09-09T12:35:32;2.45;;;0.90;;
30617;SDS011;17384;51.214;9.202;2022-09-09T12:37:58;3.53;;;1.05;;
30617;SDS011;17384;51.214;9.202;2022-09-09T12:40:26;3.95;;;1.00;;
30617;SDS011;17384;51.214;9.202;2022-09-09T12:42:52;4.35;;;0.93;;
30617;SDS011;17384;51.214;9.202;2022-09-09T12:45:22;3.15;;;1.15;;
30617;SDS011;17384;51.214;9.202;2022-09-09T12:47:53;3.60;;;0.70;;
30617;SDS011;17384;51.214;9.202;2022-09-09T12:50:22;6.03;;;0.90;;
30617;SDS011;17384;51.214;9.202;2022-09-09T12:52:51;2.88;;;0.77;;
30617;SDS011;17384;51.214;9.202;2022-09-09T12:55:20;4.53;;;0.80;;
30617;SDS011;17384;51.214;9.202;2022-09-09T12:57:47;2.08;;;0.80;;
30617;SDS011;17384;51.214;9.202;2022-09-09T13:00:16;4.20;;;0.90;;
30617;SDS011;17384;51.214;9.202;2022-09-09T13:02:45;6.55;;;1.42;;
30617;SDS011;17384;51.214;9.202;2022-09-09T13:05:19;6.35;;;0.90;;
30617;SDS011;17384;51.214;9.202;2022-09-09T13:07:45;7.45;;;1.20;;
30617;SDS011;17384;51.214;9.202;2022-09-09T13:10:11;5.53;;;0.93;;
30617;SDS011;17384;51.214;9.202;2022-09-09T13:12:37;3.05;;;1.00;;
30617;SDS011;17384;51.214;9.202;2022-09-09T13:15:02;6.75;;;1.30;;
30617;SDS011;17384;51.214;9.202;2022-09-09T13:17:28;4.03;;;1.27;;
30617;SDS011;17384;51.214;9.202;2022-09-09T13:19:54;2.63;;;0.70;;
30617;SDS011;17384;51.214;9.202;2022-09-09T13:22:30;3.03;;;1.33;;
30617;SDS011;17384;51.214;9.202;2022-09-09T13:25:00;5.60;;;1.13;;
30617;SDS011;17384;51.214;9.202;2022-09-09T13:30:19;5.50;;;1.05;;
30617;SDS011;17384;51.214;9.202;2022-09-09T13:35:22;2.30;;;1.10;;
30617;SDS011;17384;51.214;9.202;2022-09-09T13:37:48;2.90;;;1.10;;
30617;SDS011;17384;51.214;9.202;2022-09-09T13:40:17;8.55;;;1.48;;
30617;SDS011;17384;51.214;9.202;2022-09-09T13:42:42;6.68;;;1.45;;
30617;SDS011;17384;51.214;9.202;2022-09-09T13:45:19;6.10;;;1.50;;
30617;SDS011;17384;51.214;9.202;2022-09-09T13:47:48;5.75;;;1.50;;
30617;SDS011;17384;51.214;9.202;2022-09-09T13:50:29;3.42;;;1.23;;
30617;SDS011;17384;51.214;9.202;2022-09-09T13:52:55;3.95;;;1.50;;
30617;SDS011;17384;51.214;9.202;2022-09-09T13:55:23;5.93;;;1.42;;
30617;SDS011;17384;51.214;9.202;2022-09-09T14:00:17;3.80;;;1.27;;
30617;SDS011;17384;51.214;9.202;2022-09-09T14:02:42;5.05;;;1.40;;
30617;SDS011;17384;51.214;9.202;2022-09-09T14:05:09;3.95;;;1.55;;
30617;SDS011;17384;51.214;9.202;2022-09-09T14:07:34;5.30;;;1.20;;
30617;SDS011;17384;51.214;9.202;2022-09-09T14:09:59;3.13;;;1.20;;
30617;SDS011;17384;51.214;9.202;2022-09-09T14:12:25;5.45;;;1.35;;
30617;SDS011;17384;51.214;9.202;2022-09-09T14:14:50;5.28;;;1.65;;
30617;SDS011;17384;51.214;9.202;2022-09-09T14:17:15;5.53;;;1.38;;
30617;SDS011;17384;51.214;9.202;2022-09-09T14:19:41;7.73;;;1.53;;
30617;SDS011;17384;51.214;9.202;2022-09-09T14:22:07;7.28;;;1.10;;
30617;SDS011;17384;51.214;9.202;2022-09-09T14:24:32;2.27;;;0.90;;
30617;SDS011;17384;51.214;9.202;2022-09-09T14:26:58;5.25;;;1.40;;
30617;SDS011;17384;51.214;9.202;2022-09-09T14:29:23;5.53;;;1.47;;
30617;SDS011;17384;51.214;9.202;2022-09-09T14:31:50;3.33;;;1.08;;
30617;SDS011;17384;51.214;9.202;2022-09-09T14:34:15;7.97;;;1.10;;
30617;SDS011;17384;51.214;9.202;2022-09-09T14:36:40;3.10;;;1.13;;
30617;SDS011;17384;51.214;9.202;2022-09-09T14:39:06;3.08;;;1.40;;
30617;SDS011;17384;51.214;9.202;2022-09-09T14:41:31;3.40;;;1.17;;
30617;SDS011;17384;51.214;9.202;2022-09-09T14:43:57;3.83;;;1.17;;
30617;SDS011;17384;51.214;9.202;2022-09-09T14:46:22;4.95;;;1.13;;
30617;SDS011;17384;51.214;9.202;2022-09-09T14:48:48;5.63;;;1.77;;
30617;SDS011;17384;51.214;9.202;2022-09-09T14:53:42;6.80;;;1.55;;
30617;SDS011;17384;51.214;9.202;2022-09-09T14:56:17;7.22;;;1.70;;
30617;SDS011;17384;51.214;9.202;2022-09-09T14:58:43;2.72;;;1.35;;
30617;SDS011;17384;51.214;9.202;2022-09-09T15:01:10;4.55;;;1.20;;
30617;SDS011;17384;51.214;9.202;2022-09-09T15:03:35;7.38;;;1.35;;
30617;SDS011;17384;51.214;9.202;2022-09-09T15:06:06;3.03;;;1.08;;
30617;SDS011;17384;51.214;9.202;2022-09-09T15:08:31;5.28;;;1.55;;
30617;SDS011;17384;51.214;9.202;2022-09-09T15:11:00;6.88;;;2.13;;
30617;SDS011;17384;51.214;9.202;2022-09-09T15:13:26;4.32;;;1.65;;
30617;SDS011;17384;51.214;9.202;2022-09-09T15:15:51;5.95;;;1.30;;
30617;SDS011;17384;51.214;9.202;2022-09-09T15:18:16;6.72;;;1.10;;
30617;SDS011;17384;51.214;9.202;2022-09-09T15:20:45;2.23;;;0.73;;
30617;SDS011;17384;51.214;9.202;2022-09-09T15:23:11;4.15;;;1.33;;
30617;SDS011;17384;51.214;9.202;2022-09-09T15:25:36;9.13;;;1.35;;
30617;SDS011;17384;51.214;9.202;2022-09-09T15:28:02;5.38;;;1.13;;
30617;SDS011;17384;51.214;9.202;2022-09-09T15:30:27;3.28;;;0.85;;
30617;SDS011;17384;51.214;9.202;2022-09-09T15:32:52;4.03;;;1.07;;
30617;SDS011;17384;51.214;9.202;2022-09-09T15:35:18;3.47;;;1.00;;
30617;SDS011;17384;51.214;9.202;2022-09-09T15:37:43;1.85;;;0.82;;
30617;SDS011;17384;51.214;9.202;2022-09-09T15:40:10;4.55;;;0.90;;
30617;SDS011;17384;51.214;9.202;2022-09-09T15:42:35;2.30;;;0.90;;
30617;SDS011;17384;51.214;9.202;2022-09-09T15:45:01;3.60;;;0.73;;
30617;SDS011;17384;51.214;9.202;2022-09-09T15:47:26;7.32;;;1.10;;
30617;SDS011;17384;51.214;9.202;2022-09-09T15:49:52;5.63;;;1.33;;
30617;SDS011;17384;51.214;9.202;2022-09-09T15:52:17;6.43;;;0.75;;
30617;SDS011;17384;51.214;9.202;2022-09-09T15:54:43;2.97;;;1.10;;
30617;SDS011;17384;51.214;9.202;2022-09-09T15:57:11;6.60;;;0.88;;
30617;SDS011;17384;51.214;9.202;2022-09-09T15:59:37;2.45;;;0.70;;
30617;SDS011;17384;51.214;9.202;2022-09-09T16:02:02;5.53;;;1.03;;
30617;SDS011;17384;51.214;9.202;2022-09-09T16:04:28;2.35;;;1.10;;
30617;SDS011;17384;51.214;9.202;2022-09-09T16:07:01;4.32;;;1.13;;
30617;SDS011;17384;51.214;9.202;2022-09-09T16:09:28;3.47;;;1.00;;
30617;SDS011;17384;51.214;9.202;2022-09-09T16:11:55;2.53;;;1.17;;
30617;SDS011;17384;51.214;9.202;2022-09-09T16:14:21;5.05;;;1.30;;
30617;SDS011;17384;51.214;9.202;2022-09-09T16:16:46;4.30;;;1.75;;
30617;SDS011;17384;51.214;9.202;2022-09-09T16:19:13;7.55;;;0.88;;
30617;SDS011;17384;51.214;9.202;2022-09-09T16:21:40;3.58;;;1.35;;
30617;SDS011;17384;51.214;9.202;2022-09-09T16:24:06;5.13;;;1.25;;
30617;SDS011;17384;51.214;9.202;2022-09-09T16:26:33;5.75;;;1.77;;
30617;SDS011;17384;51.214;9.202;2022-09-09T16:28:58;1.95;;;0.82;;
30617;SDS011;17384;51.214;9.202;2022-09-09T16:31:24;7.00;;;1.33;;
30617;SDS011;17384;51.214;9.202;2022-09-09T16:33:50;3.13;;;1.17;;
30617;SDS011;17384;51.214;9.202;2022-09-09T16:36:17;4.57;;;1.40;;
30617;SDS011;17384;51.214;9.202;2022-09-09T16:38:42;2.13;;;1.10;;
30617;SDS011;17384;51.214;9.202;2022-09-09T16:41:08;9.68;;;1.40;;
30617;SDS011;17384;51.214;9.202;2022-09-09T16:43:34;4.90;;;1.48;;
30617;SDS011;17384;51.214;9.202;2022-09-09T16:46:00;6.25;;;1.52;;
30617;SDS011;17384;51.214;9.202;2022-09-09T16:48:26;3.38;;;1.73;;
30617;SDS011;17384;51.214;9.202;2022-09-09T16:50:52;6.43;;;1.27;;
30617;SDS011;17384;51.214;9.202;2022-09-09T16:53:17;7.10;;;1.13;;
30617;SDS011;17384;51.214;9.202;2022-09-09T16:55:43;5.55;;;1.20;;